sensor_id;sensor_type;location;lat;lon;timestamp;temperature;humidity
80132;SHT30;69442;51.442;10.564;2024-02-04T00:00:27;9.41;82.78
80132;SHT30;69442;51.442;10.564;2024-02-04T00:02:53;9.39;83.09
80132;SHT30;69442;51.442;10.564;2024-02-04T00:05:18;9.39;82.82
80132;SHT30;69442;51.442;10.564;2024-02-04T00:07:44;9.37;82.73
80132;SHT30;69442;51.442;10.564;2024-02-04T00:10:10;9.36;83.15
80132;SHT30;69442;51.442;10.564;2024-02-04T00:12:36;9.40;83.60
80132;SHT30;69442;51.442;10.564;2024-02-04T00:15:01;9.37;83.49
80132;SHT30;69442;51.442;10.564;2024-02-04T00:17:29;9.41;83.50
80132;SHT30;69442;51.442;10.564;2024-02-04T00:19:56;9.40;83.38
80132;SHT30;69442;51.442;10.564;2024-02-04T00:22:22;9.37;83.30
80132;SHT30;69442;51.442;10.564;2024-02-04T00:24:48;9.40;83.83
80132;SHT30;69442;51.442;10.564;2024-02-04T00:27:13;9.36;83.72
80132;SHT30;69442;51.442;10.564;2024-02-04T00:29:38;9.36;83.78
80132;SHT30;69442;51.442;10.564;2024-02-04T00:32:04;9.37;83.74
80132;SHT30;69442;51.442;10.564;2024-02-04T00:34:29;9.37;83.57
80132;SHT30;69442;51.442;10.564;2024-02-04T00:36:55;9.34;83.51
80132;SHT30;69442;51.442;10.564;2024-02-04T00:39:20;9.36;83.94
80132;SHT30;69442;51.442;10.564;2024-02-04T00:41:46;9.37;83.57
80132;SHT30;69442;51.442;10.564;2024-02-04T00:44:11;9.36;83.48
80132;SHT30;69442;51.442;10.564;2024-02-04T00:46:36;9.36;83.58
80132;SHT30;69442;51.442;10.564;2024-02-04T00:49:02;9.36;83.68
80132;SHT30;69442;51.442;10.564;2024-02-04T00:51:27;9.33;83.48
80132;SHT30;69442;51.442;10.564;2024-02-04T00:53:52;9.31;83.77
80132;SHT30;69442;51.442;10.564;2024-02-04T00:56:18;9.30;83.59
80132;SHT30;69442;51.442;10.564;2024-02-04T00:58:43;9.29;83.48
80132;SHT30;69442;51.442;10.564;2024-02-04T01:01:08;9.27;83.34
80132;SHT30;69442;51.442;10.564;2024-02-04T01:03:34;9.26;83.49
80132;SHT30;69442;51.442;10.564;2024-02-04T01:05:59;9.24;83.59
80132;SHT30;69442;51.442;10.564;2024-02-04T01:08:25;9.23;83.27
80132;SHT30;69442;51.442;10.564;2024-02-04T01:10:50;9.23;83.48
80132;SHT30;69442;51.442;10.564;2024-02-04T01:13:16;9.27;83.48
80132;SHT30;69442;51.442;10.564;2024-02-04T01:15:42;9.26;83.12
80132;SHT30;69442;51.442;10.564;2024-02-04T01:18:07;9.23;82.97
80132;SHT30;69442;51.442;10.564;2024-02-04T01:20:33;9.24;82.91
80132;SHT30;69442;51.442;10.564;2024-02-04T01:22:58;9.24;83.10
80132;SHT30;69442;51.442;10.564;2024-02-04T01:25:23;9.24;82.60
80132;SHT30;69442;51.442;10.564;2024-02-04T01:27:49;9.22;82.89
80132;SHT30;69442;51.442;10.564;2024-02-04T01:30:14;9.16;82.60
80132;SHT30;69442;51.442;10.564;2024-02-04T01:32:39;9.15;82.57
80132;SHT30;69442;51.442;10.564;2024-02-04T01:35:05;9.18;83.06
80132;SHT30;69442;51.442;10.564;2024-02-04T01:37:31;9.18;82.72
80132;SHT30;69442;51.442;10.564;2024-02-04T01:39:56;9.16;83.00
80132;SHT30;69442;51.442;10.564;2024-02-04T01:42:21;9.18;83.02
80132;SHT30;69442;51.442;10.564;2024-02-04T01:44:47;9.19;82.89
80132;SHT30;69442;51.442;10.564;2024-02-04T01:47:12;9.15;83.01
80132;SHT30;69442;51.442;10.564;2024-02-04T01:49:38;9.16;83.47
80132;SHT30;69442;51.442;10.564;2024-02-04T01:52:04;9.13;82.97
80132;SHT30;69442;51.442;10.564;2024-02-04T01:54:31;9.08;82.96
80132;SHT30;69442;51.442;10.564;2024-02-04T01:56:58;9.08;83.27
80132;SHT30;69442;51.442;10.564;2024-02-04T01:59:24;9.06;83.21
80132;SHT30;69442;51.442;10.564;2024-02-04T02:01:56;9.08;83.37
80132;SHT30;69442;51.442;10.564;2024-02-04T02:04:21;9.09;83.33
80132;SHT30;69442;51.442;10.564;2024-02-04T02:06:46;9.08;83.12
80132;SHT30;69442;51.442;10.564;2024-02-04T02:09:12;9.06;82.90
80132;SHT30;69442;51.442;10.564;2024-02-04T02:11:41;9.06;83.10
80132;SHT30;69442;51.442;10.564;2024-02-04T02:14:14;9.08;83.05
80132;SHT30;69442;51.442;10.564;2024-02-04T02:16:44;9.06;83.21
80132;SHT30;69442;51.442;10.564;2024-02-04T02:22:04;9.04;83.09
80132;SHT30;69442;51.442;10.564;2024-02-04T02:24:38;9.01;83.21
80132;SHT30;69442;51.442;10.564;2024-02-04T02:27:04;9.02;83.05
80132;SHT30;69442;51.442;10.564;2024-02-04T02:29:31;9.02;83.26
80132;SHT30;69442;51.442;10.564;2024-02-04T02:31:57;9.04;83.58
80132;SHT30;69442;51.442;10.564;2024-02-04T02:34:23;9.05;83.75
80132;SHT30;69442;51.442;10.564;2024-02-04T02:39:37;8.98;83.24
80132;SHT30;69442;51.442;10.564;2024-02-04T02:42:05;8.99;83.40
80132;SHT30;69442;51.442;10.564;2024-02-04T02:44:32;9.04;83.57
80132;SHT30;69442;51.442;10.564;2024-02-04T02:47:00;9.04;83.79
80132;SHT30;69442;51.442;10.564;2024-02-04T02:49:28;8.99;83.67
80132;SHT30;69442;51.442;10.564;2024-02-04T02:51:53;9.01;83.75
80132;SHT30;69442;51.442;10.564;2024-02-04T02:54:18;9.02;83.86
80132;SHT30;69442;51.442;10.564;2024-02-04T02:56:44;9.01;83.80
80132;SHT30;69442;51.442;10.564;2024-02-04T02:59:09;8.99;83.92
80132;SHT30;69442;51.442;10.564;2024-02-04T03:01:34;9.05;84.16
80132;SHT30;69442;51.442;10.564;2024-02-04T03:03:59;9.05;84.10
80132;SHT30;69442;51.442;10.564;2024-02-04T03:06:25;8.98;84.19
80132;SHT30;69442;51.442;10.564;2024-02-04T03:08:50;9.01;84.34
80132;SHT30;69442;51.442;10.564;2024-02-04T03:11:15;8.96;84.40
80132;SHT30;69442;51.442;10.564;2024-02-04T03:13:41;8.96;84.63
80132;SHT30;69442;51.442;10.564;2024-02-04T03:16:13;8.99;84.63
80132;SHT30;69442;51.442;10.564;2024-02-04T03:18:39;9.01;84.57
80132;SHT30;69442;51.442;10.564;2024-02-04T03:21:14;9.02;84.60
80132;SHT30;69442;51.442;10.564;2024-02-04T03:23:41;9.04;84.61
80132;SHT30;69442;51.442;10.564;2024-02-04T03:26:08;9.02;84.71
80132;SHT30;69442;51.442;10.564;2024-02-04T03:28:33;9.04;84.71
80132;SHT30;69442;51.442;10.564;2024-02-04T03:30:58;9.08;84.70
80132;SHT30;69442;51.442;10.564;2024-02-04T03:33:24;9.05;84.82
80132;SHT30;69442;51.442;10.564;2024-02-04T03:35:49;9.02;84.87
80132;SHT30;69442;51.442;10.564;2024-02-04T03:38:14;9.06;84.80
80132;SHT30;69442;51.442;10.564;2024-02-04T03:40:40;9.04;84.93
80132;SHT30;69442;51.442;10.564;2024-02-04T03:43:08;9.01;84.94
80132;SHT30;69442;51.442;10.564;2024-02-04T03:45:35;9.04;84.98
80132;SHT30;69442;51.442;10.564;2024-02-04T03:48:00;9.02;85.12
80132;SHT30;69442;51.442;10.564;2024-02-04T03:50:26;9.02;85.04
80132;SHT30;69442;51.442;10.564;2024-02-04T03:52:51;9.01;85.09
80132;SHT30;69442;51.442;10.564;2024-02-04T03:55:16;9.05;85.14
80132;SHT30;69442;51.442;10.564;2024-02-04T03:57:42;9.05;85.22
80132;SHT30;69442;51.442;10.564;2024-02-04T04:00:08;9.06;85.44
80132;SHT30;69442;51.442;10.564;2024-02-04T04:02:34;9.06;85.41
80132;SHT30;69442;51.442;10.564;2024-02-04T04:04:59;9.08;85.57
80132;SHT30;69442;51.442;10.564;2024-02-04T04:07:24;9.06;85.52
80132;SHT30;69442;51.442;10.564;2024-02-04T04:09:50;9.09;85.49
80132;SHT30;69442;51.442;10.564;2024-02-04T04:12:15;9.08;85.65
80132;SHT30;69442;51.442;10.564;2024-02-04T04:14:40;9.09;85.54
80132;SHT30;69442;51.442;10.564;2024-02-04T04:17:06;9.11;85.45
80132;SHT30;69442;51.442;10.564;2024-02-04T04:19:31;9.11;85.47
80132;SHT30;69442;51.442;10.564;2024-02-04T04:21:58;9.09;85.77
80132;SHT30;69442;51.442;10.564;2024-02-04T04:24:24;9.11;85.66
80132;SHT30;69442;51.442;10.564;2024-02-04T04:26:50;9.11;85.61
80132;SHT30;69442;51.442;10.564;2024-02-04T04:29:15;9.11;85.66
80132;SHT30;69442;51.442;10.564;2024-02-04T04:31:41;9.13;85.47
80132;SHT30;69442;51.442;10.564;2024-02-04T04:34:06;9.13;85.65
80132;SHT30;69442;51.442;10.564;2024-02-04T04:36:31;9.12;85.88
80132;SHT30;69442;51.442;10.564;2024-02-04T04:38:57;9.13;85.95
80132;SHT30;69442;51.442;10.564;2024-02-04T04:41:22;9.11;86.18
80132;SHT30;69442;51.442;10.564;2024-02-04T04:43:48;9.12;86.09
80132;SHT30;69442;51.442;10.564;2024-02-04T04:46:13;9.09;86.06
80132;SHT30;69442;51.442;10.564;2024-02-04T04:48:38;9.09;86.25
80132;SHT30;69442;51.442;10.564;2024-02-04T04:51:04;9.11;86.10
80132;SHT30;69442;51.442;10.564;2024-02-04T04:53:29;9.11;86.00
80132;SHT30;69442;51.442;10.564;2024-02-04T04:55:55;9.11;86.16
80132;SHT30;69442;51.442;10.564;2024-02-04T04:58:20;9.15;85.84
80132;SHT30;69442;51.442;10.564;2024-02-04T05:00:45;9.16;85.98
80132;SHT30;69442;51.442;10.564;2024-02-04T05:03:11;9.16;86.18
80132;SHT30;69442;51.442;10.564;2024-02-04T05:05:36;9.16;85.97
80132;SHT30;69442;51.442;10.564;2024-02-04T05:08:02;9.20;86.05
80132;SHT30;69442;51.442;10.564;2024-02-04T05:10:27;9.15;86.08
80132;SHT30;69442;51.442;10.564;2024-02-04T05:12:53;9.13;86.09
80132;SHT30;69442;51.442;10.564;2024-02-04T05:15:18;9.16;85.97
80132;SHT30;69442;51.442;10.564;2024-02-04T05:17:43;9.18;85.74
80132;SHT30;69442;51.442;10.564;2024-02-04T05:20:09;9.20;85.86
80132;SHT30;69442;51.442;10.564;2024-02-04T05:22:35;9.18;86.17
80132;SHT30;69442;51.442;10.564;2024-02-04T05:25:00;9.18;86.12
80132;SHT30;69442;51.442;10.564;2024-02-04T05:27:26;9.16;86.19
80132;SHT30;69442;51.442;10.564;2024-02-04T05:29:51;9.16;86.21
80132;SHT30;69442;51.442;10.564;2024-02-04T05:32:16;9.18;86.14
80132;SHT30;69442;51.442;10.564;2024-02-04T05:34:42;9.20;86.24
80132;SHT30;69442;51.442;10.564;2024-02-04T05:37:07;9.19;86.28
80132;SHT30;69442;51.442;10.564;2024-02-04T05:39:33;9.18;86.39
80132;SHT30;69442;51.442;10.564;2024-02-04T05:41:58;9.19;86.37
80132;SHT30;69442;51.442;10.564;2024-02-04T05:44:23;9.18;86.56
80132;SHT30;69442;51.442;10.564;2024-02-04T05:46:49;9.22;86.44
80132;SHT30;69442;51.442;10.564;2024-02-04T05:49:14;9.20;86.48
80132;SHT30;69442;51.442;10.564;2024-02-04T05:51:41;9.22;86.55
80132;SHT30;69442;51.442;10.564;2024-02-04T05:54:07;9.22;86.59
80132;SHT30;69442;51.442;10.564;2024-02-04T05:56:33;9.22;86.60
80132;SHT30;69442;51.442;10.564;2024-02-04T05:58:58;9.20;86.66
80132;SHT30;69442;51.442;10.564;2024-02-04T06:01:23;9.20;86.71
80132;SHT30;69442;51.442;10.564;2024-02-04T06:03:49;9.19;86.81
80132;SHT30;69442;51.442;10.564;2024-02-04T06:06:15;9.19;87.10
80132;SHT30;69442;51.442;10.564;2024-02-04T06:08:41;9.20;86.98
80132;SHT30;69442;51.442;10.564;2024-02-04T06:11:10;9.19;86.95
80132;SHT30;69442;51.442;10.564;2024-02-04T06:13:35;9.20;86.90
80132;SHT30;69442;51.442;10.564;2024-02-04T06:16:01;9.20;86.62
80132;SHT30;69442;51.442;10.564;2024-02-04T06:18:26;9.23;86.40
80132;SHT30;69442;51.442;10.564;2024-02-04T06:20:52;9.20;86.32
80132;SHT30;69442;51.442;10.564;2024-02-04T06:23:17;9.20;86.20
80132;SHT30;69442;51.442;10.564;2024-02-04T06:25:44;9.19;86.16
80132;SHT30;69442;51.442;10.564;2024-02-04T06:28:10;9.20;86.14
80132;SHT30;69442;51.442;10.564;2024-02-04T06:30:36;9.19;86.20
80132;SHT30;69442;51.442;10.564;2024-02-04T06:33:03;9.16;86.08
80132;SHT30;69442;51.442;10.564;2024-02-04T06:35:28;9.15;86.07
80132;SHT30;69442;51.442;10.564;2024-02-04T06:37:54;9.19;86.09
80132;SHT30;69442;51.442;10.564;2024-02-04T06:40:19;9.16;86.08
80132;SHT30;69442;51.442;10.564;2024-02-04T06:42:44;9.16;86.11
80132;SHT30;69442;51.442;10.564;2024-02-04T06:45:10;9.19;86.05
80132;SHT30;69442;51.442;10.564;2024-02-04T06:47:35;9.16;86.08
80132;SHT30;69442;51.442;10.564;2024-02-04T06:50:00;9.19;86.16
80132;SHT30;69442;51.442;10.564;2024-02-04T06:52:28;9.18;86.27
80132;SHT30;69442;51.442;10.564;2024-02-04T06:54:53;9.18;86.25
80132;SHT30;69442;51.442;10.564;2024-02-04T06:57:23;9.15;86.23
80132;SHT30;69442;51.442;10.564;2024-02-04T06:59:56;9.20;86.19
80132;SHT30;69442;51.442;10.564;2024-02-04T07:02:44;9.19;86.15
80132;SHT30;69442;51.442;10.564;2024-02-04T07:05:11;9.20;86.04
80132;SHT30;69442;51.442;10.564;2024-02-04T07:08:10;9.16;86.03
80132;SHT30;69442;51.442;10.564;2024-02-04T07:10:37;9.19;85.93
80132;SHT30;69442;51.442;10.564;2024-02-04T07:13:04;9.19;85.74
80132;SHT30;69442;51.442;10.564;2024-02-04T07:15:30;9.18;85.53
80132;SHT30;69442;51.442;10.564;2024-02-04T07:17:55;9.15;85.36
80132;SHT30;69442;51.442;10.564;2024-02-04T07:20:21;9.18;85.44
80132;SHT30;69442;51.442;10.564;2024-02-04T07:22:46;9.18;85.22
80132;SHT30;69442;51.442;10.564;2024-02-04T07:25:12;9.15;85.23
80132;SHT30;69442;51.442;10.564;2024-02-04T07:27:38;9.18;85.48
80132;SHT30;69442;51.442;10.564;2024-02-04T07:30:14;9.19;85.32
80132;SHT30;69442;51.442;10.564;2024-02-04T07:32:52;9.18;85.39
80132;SHT30;69442;51.442;10.564;2024-02-04T07:35:18;9.19;85.47
80132;SHT30;69442;51.442;10.564;2024-02-04T07:37:44;9.19;85.45
80132;SHT30;69442;51.442;10.564;2024-02-04T07:40:12;9.18;85.54
80132;SHT30;69442;51.442;10.564;2024-02-04T07:42:44;9.18;85.63
80132;SHT30;69442;51.442;10.564;2024-02-04T07:45:36;9.19;85.70
80132;SHT30;69442;51.442;10.564;2024-02-04T07:48:04;9.18;85.81
80132;SHT30;69442;51.442;10.564;2024-02-04T07:50:30;9.16;85.96
80132;SHT30;69442;51.442;10.564;2024-02-04T07:52:55;9.16;86.06
80132;SHT30;69442;51.442;10.564;2024-02-04T07:55:20;9.18;85.98
80132;SHT30;69442;51.442;10.564;2024-02-04T07:57:46;9.19;86.04
80132;SHT30;69442;51.442;10.564;2024-02-04T08:00:13;9.20;86.09
80132;SHT30;69442;51.442;10.564;2024-02-04T08:02:40;9.19;86.10
80132;SHT30;69442;51.442;10.564;2024-02-04T08:05:09;9.20;86.19
80132;SHT30;69442;51.442;10.564;2024-02-04T08:07:34;9.19;86.17
80132;SHT30;69442;51.442;10.564;2024-02-04T08:10:01;9.15;86.20
80132;SHT30;69442;51.442;10.564;2024-02-04T08:12:27;9.19;86.21
80132;SHT30;69442;51.442;10.564;2024-02-04T08:14:54;9.19;86.14
80132;SHT30;69442;51.442;10.564;2024-02-04T08:17:19;9.20;86.13
80132;SHT30;69442;51.442;10.564;2024-02-04T08:19:45;9.22;87.30
80132;SHT30;69442;51.442;10.564;2024-02-04T08:22:13;9.23;86.90
80132;SHT30;69442;51.442;10.564;2024-02-04T08:24:38;9.24;87.31
80132;SHT30;69442;51.442;10.564;2024-02-04T08:27:04;9.26;86.54
80132;SHT30;69442;51.442;10.564;2024-02-04T08:29:35;9.24;86.46
80132;SHT30;69442;51.442;10.564;2024-02-04T08:32:05;9.24;86.37
80132;SHT30;69442;51.442;10.564;2024-02-04T08:34:32;9.23;85.92
80132;SHT30;69442;51.442;10.564;2024-02-04T08:37:02;9.24;85.53
80132;SHT30;69442;51.442;10.564;2024-02-04T08:39:29;9.22;85.31
80132;SHT30;69442;51.442;10.564;2024-02-04T08:42:00;9.22;85.39
80132;SHT30;69442;51.442;10.564;2024-02-04T08:44:32;9.24;85.50
80132;SHT30;69442;51.442;10.564;2024-02-04T08:47:04;9.29;85.69
80132;SHT30;69442;51.442;10.564;2024-02-04T08:49:42;9.27;85.55
80132;SHT30;69442;51.442;10.564;2024-02-04T08:52:35;9.29;85.71
80132;SHT30;69442;51.442;10.564;2024-02-04T08:55:07;9.33;85.77
80132;SHT30;69442;51.442;10.564;2024-02-04T08:58:01;9.36;85.57
80132;SHT30;69442;51.442;10.564;2024-02-04T09:00:43;9.37;85.66
80132;SHT30;69442;51.442;10.564;2024-02-04T09:03:49;9.41;85.38
80132;SHT30;69442;51.442;10.564;2024-02-04T09:06:26;9.39;84.91
80132;SHT30;69442;51.442;10.564;2024-02-04T09:09:03;9.43;84.89
80132;SHT30;69442;51.442;10.564;2024-02-04T09:11:36;9.46;84.48
80132;SHT30;69442;51.442;10.564;2024-02-04T09:14:48;9.50;84.89
80132;SHT30;69442;51.442;10.564;2024-02-04T09:17:39;9.48;84.30
80132;SHT30;69442;51.442;10.564;2024-02-04T09:20:11;9.48;84.14
80132;SHT30;69442;51.442;10.564;2024-02-04T09:23:08;9.52;84.47
80132;SHT30;69442;51.442;10.564;2024-02-04T09:25:55;9.54;84.50
80132;SHT30;69442;51.442;10.564;2024-02-04T09:28:46;9.54;84.25
80132;SHT30;69442;51.442;10.564;2024-02-04T09:31:28;9.57;84.51
80132;SHT30;69442;51.442;10.564;2024-02-04T09:33:55;9.57;84.78
80132;SHT30;69442;51.442;10.564;2024-02-04T09:36:30;9.55;85.07
80132;SHT30;69442;51.442;10.564;2024-02-04T09:39:19;9.52;85.46
80132;SHT30;69442;51.442;10.564;2024-02-04T09:41:48;9.57;85.16
80132;SHT30;69442;51.442;10.564;2024-02-04T09:44:14;9.55;85.43
80132;SHT30;69442;51.442;10.564;2024-02-04T09:46:40;9.57;85.60
80132;SHT30;69442;51.442;10.564;2024-02-04T09:49:08;9.55;85.66
80132;SHT30;69442;51.442;10.564;2024-02-04T09:51:37;9.55;85.72
80132;SHT30;69442;51.442;10.564;2024-02-04T09:54:04;9.57;85.58
80132;SHT30;69442;51.442;10.564;2024-02-04T09:56:35;9.58;85.60
80132;SHT30;69442;51.442;10.564;2024-02-04T09:59:25;9.57;85.49
80132;SHT30;69442;51.442;10.564;2024-02-04T10:01:55;9.55;85.58
80132;SHT30;69442;51.442;10.564;2024-02-04T10:07:17;9.59;85.43
80132;SHT30;69442;51.442;10.564;2024-02-04T10:09:53;9.65;85.43
80132;SHT30;69442;51.442;10.564;2024-02-04T10:12:26;9.67;85.44
80132;SHT30;69442;51.442;10.564;2024-02-04T10:16:05;9.68;85.26
80132;SHT30;69442;51.442;10.564;2024-02-04T10:18:55;9.65;85.44
80132;SHT30;69442;51.442;10.564;2024-02-04T10:22:08;9.67;85.30
80132;SHT30;69442;51.442;10.564;2024-02-04T10:25:08;9.71;85.10
80132;SHT30;69442;51.442;10.564;2024-02-04T10:27:41;9.68;84.88
80132;SHT30;69442;51.442;10.564;2024-02-04T10:30:28;9.71;84.84
80132;SHT30;69442;51.442;10.564;2024-02-04T10:33:11;9.73;84.96
80132;SHT30;69442;51.442;10.564;2024-02-04T10:35:46;9.74;85.08
80132;SHT30;69442;51.442;10.564;2024-02-04T10:38:19;9.74;84.75
80132;SHT30;69442;51.442;10.564;2024-02-04T10:41:07;9.73;84.04
80132;SHT30;69442;51.442;10.564;2024-02-04T10:43:39;9.78;85.23
80132;SHT30;69442;51.442;10.564;2024-02-04T10:46:22;9.77;84.53
80132;SHT30;69442;51.442;10.564;2024-02-04T10:48:56;9.78;84.41
80132;SHT30;69442;51.442;10.564;2024-02-04T10:51:42;9.77;84.21
80132;SHT30;69442;51.442;10.564;2024-02-04T10:54:34;9.78;84.30
80132;SHT30;69442;51.442;10.564;2024-02-04T10:57:07;9.78;84.46
80132;SHT30;69442;51.442;10.564;2024-02-04T11:00:02;9.82;84.67
80132;SHT30;69442;51.442;10.564;2024-02-04T11:02:38;9.79;84.39
80132;SHT30;69442;51.442;10.564;2024-02-04T11:05:30;9.79;84.63
80132;SHT30;69442;51.442;10.564;2024-02-04T11:08:17;9.79;84.39
80132;SHT30;69442;51.442;10.564;2024-02-04T11:11:16;9.81;84.69
80132;SHT30;69442;51.442;10.564;2024-02-04T11:13:46;9.77;84.20
80132;SHT30;69442;51.442;10.564;2024-02-04T11:20:13;9.74;84.34
80132;SHT30;69442;51.442;10.564;2024-02-04T11:25:59;9.74;84.84
80132;SHT30;69442;51.442;10.564;2024-02-04T11:28:53;9.74;84.35
80132;SHT30;69442;51.442;10.564;2024-02-04T11:31:31;9.75;84.37
80132;SHT30;69442;51.442;10.564;2024-02-04T11:34:46;9.74;84.14
80132;SHT30;69442;51.442;10.564;2024-02-04T11:42:16;9.77;84.94
80132;SHT30;69442;51.442;10.564;2024-02-04T11:45:28;9.79;84.07
80132;SHT30;69442;51.442;10.564;2024-02-04T11:48:50;9.77;83.59
80132;SHT30;69442;51.442;10.564;2024-02-04T11:51:29;9.81;84.34
80132;SHT30;69442;51.442;10.564;2024-02-04T11:53:57;9.84;83.81
80132;SHT30;69442;51.442;10.564;2024-02-04T11:56:30;9.86;83.85
80132;SHT30;69442;51.442;10.564;2024-02-04T11:59:25;9.86;83.03
80132;SHT30;69442;51.442;10.564;2024-02-04T12:01:56;9.89;83.34
80132;SHT30;69442;51.442;10.564;2024-02-04T12:04:23;9.88;82.55
80132;SHT30;69442;51.442;10.564;2024-02-04T12:06:51;9.89;82.84
80132;SHT30;69442;51.442;10.564;2024-02-04T12:09:19;9.89;82.45
80132;SHT30;69442;51.442;10.564;2024-02-04T12:11:47;9.95;82.51
80132;SHT30;69442;51.442;10.564;2024-02-04T12:14:13;9.93;82.51
80132;SHT30;69442;51.442;10.564;2024-02-04T12:16:39;9.95;82.46
80132;SHT30;69442;51.442;10.564;2024-02-04T12:19:06;9.98;83.45
80132;SHT30;69442;51.442;10.564;2024-02-04T12:21:32;9.96;82.96
80132;SHT30;69442;51.442;10.564;2024-02-04T12:23:59;9.96;83.32
80132;SHT30;69442;51.442;10.564;2024-02-04T12:26:24;9.96;83.60
80132;SHT30;69442;51.442;10.564;2024-02-04T12:28:50;9.96;83.48
80132;SHT30;69442;51.442;10.564;2024-02-04T12:31:19;9.96;83.80
80132;SHT30;69442;51.442;10.564;2024-02-04T12:33:56;9.93;82.91
80132;SHT30;69442;51.442;10.564;2024-02-04T12:36:28;9.88;82.96
80132;SHT30;69442;51.442;10.564;2024-02-04T12:38:55;9.88;83.24
80132;SHT30;69442;51.442;10.564;2024-02-04T12:41:21;9.89;82.97
80132;SHT30;69442;51.442;10.564;2024-02-04T12:43:52;9.88;82.88
80132;SHT30;69442;51.442;10.564;2024-02-04T12:46:18;9.88;83.07
80132;SHT30;69442;51.442;10.564;2024-02-04T12:48:45;9.91;83.45
80132;SHT30;69442;51.442;10.564;2024-02-04T12:51:10;9.88;83.22
80132;SHT30;69442;51.442;10.564;2024-02-04T12:53:37;9.88;83.30
80132;SHT30;69442;51.442;10.564;2024-02-04T12:56:02;9.86;83.60
80132;SHT30;69442;51.442;10.564;2024-02-04T12:58:28;9.85;83.36
80132;SHT30;69442;51.442;10.564;2024-02-04T13:01:00;9.85;83.42
80132;SHT30;69442;51.442;10.564;2024-02-04T13:03:30;9.86;83.74
80132;SHT30;69442;51.442;10.564;2024-02-04T13:05:58;9.85;83.66
80132;SHT30;69442;51.442;10.564;2024-02-04T13:08:24;9.84;83.66
80132;SHT30;69442;51.442;10.564;2024-02-04T13:10:57;9.85;84.25
80132;SHT30;69442;51.442;10.564;2024-02-04T13:13:22;9.81;83.99
80132;SHT30;69442;51.442;10.564;2024-02-04T13:15:52;9.78;83.95
80132;SHT30;69442;51.442;10.564;2024-02-04T13:18:18;9.81;84.70
80132;SHT30;69442;51.442;10.564;2024-02-04T13:20:43;9.79;84.18
80132;SHT30;69442;51.442;10.564;2024-02-04T13:23:11;9.78;84.44
80132;SHT30;69442;51.442;10.564;2024-02-04T13:25:36;9.77;84.15
80132;SHT30;69442;51.442;10.564;2024-02-04T13:28:02;9.75;84.32
80132;SHT30;69442;51.442;10.564;2024-02-04T13:30:28;9.75;83.86
80132;SHT30;69442;51.442;10.564;2024-02-04T13:32:54;9.74;83.70
80132;SHT30;69442;51.442;10.564;2024-02-04T13:35:19;9.73;84.30
80132;SHT30;69442;51.442;10.564;2024-02-04T13:37:46;9.71;83.68
80132;SHT30;69442;51.442;10.564;2024-02-04T13:40:21;9.67;83.77
80132;SHT30;69442;51.442;10.564;2024-02-04T13:42:47;9.67;83.83
80132;SHT30;69442;51.442;10.564;2024-02-04T13:45:13;9.68;83.96
80132;SHT30;69442;51.442;10.564;2024-02-04T13:47:39;9.68;83.86
80132;SHT30;69442;51.442;10.564;2024-02-04T13:50:06;9.68;83.98
80132;SHT30;69442;51.442;10.564;2024-02-04T13:52:33;9.71;83.77
80132;SHT30;69442;51.442;10.564;2024-02-04T13:54:59;9.70;83.69
80132;SHT30;69442;51.442;10.564;2024-02-04T13:57:26;9.73;83.76
80132;SHT30;69442;51.442;10.564;2024-02-04T13:59:51;9.74;84.04
80132;SHT30;69442;51.442;10.564;2024-02-04T14:02:17;9.74;84.05
80132;SHT30;69442;51.442;10.564;2024-02-04T14:04:42;9.77;83.70
80132;SHT30;69442;51.442;10.564;2024-02-04T14:07:08;9.78;83.93
80132;SHT30;69442;51.442;10.564;2024-02-04T14:09:34;9.82;84.17
80132;SHT30;69442;51.442;10.564;2024-02-04T14:11:59;9.77;83.84
80132;SHT30;69442;51.442;10.564;2024-02-04T14:14:25;9.78;84.25
80132;SHT30;69442;51.442;10.564;2024-02-04T14:16:50;9.79;84.21
80132;SHT30;69442;51.442;10.564;2024-02-04T14:19:16;9.78;84.05
80132;SHT30;69442;51.442;10.564;2024-02-04T14:21:44;9.81;84.32
80132;SHT30;69442;51.442;10.564;2024-02-04T14:24:10;9.78;84.02
80132;SHT30;69442;51.442;10.564;2024-02-04T14:26:35;9.77;83.88
80132;SHT30;69442;51.442;10.564;2024-02-04T14:29:01;9.78;83.91
80132;SHT30;69442;51.442;10.564;2024-02-04T14:31:26;9.78;83.83
80132;SHT30;69442;51.442;10.564;2024-02-04T14:33:52;9.81;83.99
80132;SHT30;69442;51.442;10.564;2024-02-04T14:36:17;9.79;84.02
80132;SHT30;69442;51.442;10.564;2024-02-04T14:38:43;9.84;84.56
80132;SHT30;69442;51.442;10.564;2024-02-04T14:41:11;9.84;84.01
80132;SHT30;69442;51.442;10.564;2024-02-04T14:43:37;9.81;84.18
80132;SHT30;69442;51.442;10.564;2024-02-04T14:46:02;9.79;84.17
80132;SHT30;69442;51.442;10.564;2024-02-04T14:48:28;9.78;84.26
80132;SHT30;69442;51.442;10.564;2024-02-04T14:50:53;9.81;84.24
80132;SHT30;69442;51.442;10.564;2024-02-04T14:53:19;9.78;84.19
80132;SHT30;69442;51.442;10.564;2024-02-04T14:55:45;9.77;84.27
80132;SHT30;69442;51.442;10.564;2024-02-04T14:58:10;9.77;84.16
80132;SHT30;69442;51.442;10.564;2024-02-04T15:00:35;9.77;84.18
80132;SHT30;69442;51.442;10.564;2024-02-04T15:03:01;9.78;84.09
80132;SHT30;69442;51.442;10.564;2024-02-04T15:05:27;9.78;84.35
80132;SHT30;69442;51.442;10.564;2024-02-04T15:07:52;9.77;84.16
80132;SHT30;69442;51.442;10.564;2024-02-04T15:10:18;9.78;84.31
80132;SHT30;69442;51.442;10.564;2024-02-04T15:12:44;9.78;84.67
80132;SHT30;69442;51.442;10.564;2024-02-04T15:15:10;9.75;84.69
80132;SHT30;69442;51.442;10.564;2024-02-04T15:17:36;9.78;84.75
80132;SHT30;69442;51.442;10.564;2024-02-04T15:20:01;9.75;84.54
80132;SHT30;69442;51.442;10.564;2024-02-04T15:22:28;9.73;84.69
80132;SHT30;69442;51.442;10.564;2024-02-04T15:24:54;9.74;84.92
80132;SHT30;69442;51.442;10.564;2024-02-04T15:27:19;9.71;84.77
80132;SHT30;69442;51.442;10.564;2024-02-04T15:29:47;9.73;84.91
80132;SHT30;69442;51.442;10.564;2024-02-04T15:32:14;9.74;85.18
80132;SHT30;69442;51.442;10.564;2024-02-04T15:34:42;9.73;84.92
80132;SHT30;69442;51.442;10.564;2024-02-04T15:37:08;9.71;85.02
80132;SHT30;69442;51.442;10.564;2024-02-04T15:39:34;9.75;85.17
80132;SHT30;69442;51.442;10.564;2024-02-04T15:42:00;9.77;85.15
80132;SHT30;69442;51.442;10.564;2024-02-04T15:44:25;9.75;85.12
80132;SHT30;69442;51.442;10.564;2024-02-04T15:46:51;9.73;85.12
80132;SHT30;69442;51.442;10.564;2024-02-04T15:49:19;9.74;85.29
80132;SHT30;69442;51.442;10.564;2024-02-04T15:51:46;9.75;85.31
80132;SHT30;69442;51.442;10.564;2024-02-04T15:54:12;9.71;85.28
80132;SHT30;69442;51.442;10.564;2024-02-04T15:56:41;9.74;85.30
80132;SHT30;69442;51.442;10.564;2024-02-04T15:59:09;9.75;85.33
80132;SHT30;69442;51.442;10.564;2024-02-04T16:01:39;9.74;85.31
80132;SHT30;69442;51.442;10.564;2024-02-04T16:04:06;9.73;85.32